Westville, OH (43083)

10:53 PM EST on February 06, 2016 (GMT -0500)
Thackery | | Change Station
CLOSE
Current Station
Personal Weather Station
Location: Saint Paris, OH
Elevation: 1138 ft
Nearby Weather Stations

Elev 1138 ft 40.06 °N, 83.92 °W | Updated 13 minutes ago

Partly Cloudy
Partly Cloudy
22.1 °F
Feels Like 22 °F
N
0.0
Wind Variable Wind from NNW

Today
High -- | Low -- °F
--% Chance of Precip.
Yesterday
High -- | Low -- °F
Precip. -- in
Pressure 30.19 in
Visibility 10.0 miles
Clouds Clear
Windchill 22 °F
Dew Point 20 °F
Humidity 91%
Rainfall 0.00 in
Snow Depth Not available.
7:39 AM 5:59 PM
Waning Crescent, 3% visible
METAR KEDJ 070325Z AUTO 15006KT 10SM CLR M02/M06 A3019 RMK AO1
Pressure 30.19 in
Visibility 10.0 miles
Clouds Clear
Windchill 22 °F
Dew Point 20 °F
Humidity 91%
Rainfall 0.00 in
Snow Depth Not available.
7:39 AM 5:59 PM
Waning Crescent, 3% visible
METAR KEDJ 070325Z AUTO 15006KT 10SM CLR M02/M06 A3019 RMK AO1

10-Day Weather Forecast

Almanac

Astronomy

Feb. 06, 2016 Rise Set
Actual Time
Civil Twilight
Nautical Twilight
Astronomical Twilight
Moon
Length of Visible Light
Length of Day
Tomorrow will be .
, % of the Moon is Illuminated

Today's Extremes

State Highs State Lows

Community

WunderPhotos

Upload Photos

1,891,154 photos uploaded!

WunderBlog® & News

Nearby

Air Quality

  Air Quality AQ Index Pollutant
Not available.

Snow Depth

Station Depth Elevation

Earthquake Activity

City Distance Mag. Time & Date
Minimum magnitude displayed is 2.5.

Coastal Water Temperatures

Place Temperature

Stations

Nearby Weather Stations

Station Location Temp. Windchill Dew Point Humidity Wind Precip. Elev Updated Type
                   

Watches & Warnings

There are currently no watches in effect.